Time;durP1;ratioP1;P1;durP2;ratioP2;P2;SDS_P1;SDS_P2;PMS_P1;PMS_P2;Temp;Humidity;BMP_temperature;BMP_pressure;BME280_temperature;BME280_humidity;BME280_pressure;Samples;Min_cycle;Max_cycle;Signal;HPM_P1;HPM_P2
2020/12/11 00:02:19;;;;;;;15.83;14.13;;;;;;;2.71;86.80;97613.00;5091181;28;20193;-75
2020/12/11 00:04:46;;;;;;;15.83;14.27;;;;;;;2.72;87.23;97619.91;5067117;28;20656;-75
2020/12/11 00:07:13;;;;;;;16.70;14.23;;;;;;;2.64;87.08;97620.31;5091052;28;20258;-75
2020/12/11 00:09:40;;;;;;;15.20;13.27;;;;;;;2.72;87.79;97615.50;5090484;28;20219;-75
2020/12/11 00:12:07;;;;;;;16.90;14.63;;;;;;;2.74;87.65;97607.59;5084923;28;20649;-75
2020/12/11 00:14:34;;;;;;;15.93;14.30;;;;;;;2.70;87.58;97600.88;5073403;28;20676;-75
2020/12/11 00:17:02;;;;;;;16.30;14.03;;;;;;;2.70;88.23;97599.09;5090829;28;20257;-75
2020/12/11 00:19:29;;;;;;;15.50;13.77;;;;;;;2.73;87.68;97598.94;5087068;28;20511;-74
2020/12/11 00:21:56;;;;;;;17.57;13.23;;;;;;;2.72;86.75;97605.06;5087869;28;20215;-75
2020/12/11 00:24:23;;;;;;;15.70;14.03;;;;;;;2.73;86.58;97601.53;5090237;28;20196;-75
2020/12/11 00:26:50;;;;;;;15.77;13.90;;;;;;;2.74;86.52;97600.63;5090613;28;20206;-75
2020/12/11 00:29:18;;;;;;;13.43;11.93;;;;;;;2.74;85.17;97599.78;5090649;28;20189;-75
2020/12/11 00:31:45;;;;;;;14.23;12.80;;;;;;;2.80;84.53;97596.81;5090073;28;20319;-75
2020/12/11 00:34:13;;;;;;;15.50;13.40;;;;;;;2.78;84.70;97599.50;5068245;28;20619;-75
2020/12/11 00:36:40;;;;;;;13.27;11.77;;;;;;;2.82;85.10;97593.19;5052413;28;20222;-74
2020/12/11 00:39:07;;;;;;;13.97;12.50;;;;;;;2.84;84.59;97599.13;5090002;28;20295;-75
2020/12/11 00:41:39;;;;;;;13.60;11.30;;;;;;;2.92;85.54;97603.91;5089103;28;20751;-75
2020/12/11 00:44:06;;;;;;;14.17;12.67;;;;;;;2.81;85.74;97609.75;5090679;28;20700;-75
2020/12/11 00:46:33;;;;;;;15.47;12.03;;;;;;;2.69;85.57;97609.66;5090082;28;20236;-75
2020/12/11 00:49:00;;;;;;;12.67;11.30;;;;;;;2.79;85.28;97602.94;5064001;28;20560;-75
2020/12/11 00:51:28;;;;;;;13.83;12.43;;;;;;;2.60;84.84;97595.38;5069673;28;20239;-75
2020/12/11 00:53:55;;;;;;;12.87;11.53;;;;;;;2.68;85.42;97585.31;5072166;28;20201;-75
2020/12/11 00:56:23;;;;;;;13.73;12.20;;;;;;;2.70;86.14;97575.63;5089608;28;20196;-75
2020/12/11 00:58:50;;;;;;;15.60;12.77;;;;;;;2.68;85.96;97569.69;5088308;28;20246;-75
2020/12/11 01:01:17;;;;;;;12.87;11.57;;;;;;;2.55;84.76;97576.53;5088943;28;20204;-75
2020/12/11 01:03:44;;;;;;;12.43;11.13;;;;;;;2.63;86.03;97569.13;5089984;28;20220;-75
2020/12/11 01:06:11;;;;;;;12.23;11.03;;;;;;;2.71;85.50;97569.50;5084375;28;20560;-75
2020/12/11 01:08:39;;;;;;;11.93;10.73;;;;;;;2.58;84.89;97568.56;5089657;28;20206;-75
2020/12/11 01:11:06;;;;;;;10.53;9.53;;;;;;;2.66;85.34;97561.13;5089833;28;20226;-75
2020/12/11 01:13:33;;;;;;;12.03;10.77;;;;;;;2.57;85.57;97561.66;5089842;28;20199;-75
2020/12/11 01:16:00;;;;;;;11.50;10.30;;;;;;;2.39;84.88;97559.28;5090070;28;20257;-75
2020/12/11 01:18:27;;;;;;;11.23;10.13;;;;;;;2.43;85.83;97559.00;5090175;28;20254;-75
2020/12/11 01:20:54;;;;;;;11.90;10.70;;;;;;;2.44;85.57;97552.00;5084227;28;20189;-75
2020/12/11 01:23:21;;;;;;;11.63;10.43;;;;;;;2.33;86.15;97540.41;5073650;28;20197;-75
2020/12/11 01:25:49;;;;;;;10.87;9.77;;;;;;;2.40;84.96;97535.69;5065421;28;20192;-75
2020/12/11 01:28:16;;;;;;;10.47;9.47;;;;;;;2.39;84.25;97530.59;5086790;28;20212;-75
2020/12/11 01:30:43;;;;;;;11.07;9.97;;;;;;;2.39;84.88;97528.81;5089466;28;20313;-75
2020/12/11 01:33:10;;;;;;;11.10;10.03;;;;;;;2.38;85.19;97527.16;5089127;28;20276;-74
2020/12/11 01:35:38;;;;;;;11.23;10.13;;;;;;;2.29;85.78;97517.25;5089733;28;20731;-75
2020/12/11 01:38:05;;;;;;;10.70;9.40;;;;;;;2.37;85.83;97506.38;5089900;28;20223;-75
2020/12/11 01:40:35;;;;;;;11.30;10.20;;;;;;;2.31;85.34;97499.75;5089103;28;20705;-73
2020/12/11 01:43:03;;;;;;;11.53;10.33;;;;;;;2.20;86.23;97497.75;5089789;28;20189;-75
2020/12/11 01:45:30;;;;;;;10.33;9.33;;;;;;;2.15;85.77;97493.75;5089376;28;20695;-75
2020/12/11 01:47:58;;;;;;;11.67;10.50;;;;;;;2.23;86.15;97496.75;5087911;28;20255;-75
2020/12/11 01:50:25;;;;;;;10.97;9.87;;;;;;;2.18;86.06;97502.22;5089026;28;20208;-75
2020/12/11 01:52:52;;;;;;;10.00;8.97;;;;;;;2.20;84.73;97509.94;5089792;28;20230;-75
2020/12/11 01:55:20;;;;;;;10.43;9.33;;;;;;;2.26;85.32;97513.06;5072013;28;20249;-75
2020/12/11 01:57:54;;;;;;;10.37;9.20;;;;;;;2.27;85.42;97506.06;5088105;28;20246;-75
2020/12/11 02:00:22;;;;;;;10.73;9.57;;;;;;;2.17;84.45;97507.50;5085508;28;20197;-75
2020/12/11 02:03:02;;;;;;;9.83;8.83;;;;;;;2.19;85.68;97506.50;5089769;28;20192;-75
2020/12/11 02:05:29;;;;;;;9.90;8.90;;;;;;;2.14;85.76;97503.31;5083749;28;20611;-75
2020/12/11 02:07:58;;;;;;;10.17;9.17;;;;;;;2.19;85.29;97497.88;5076434;28;20179;-75
2020/12/11 02:10:26;;;;;;;11.20;9.80;;;;;;;2.07;85.98;97491.59;5085171;28;20212;-74
2020/12/11 02:12:53;;;;;;;10.47;9.47;;;;;;;2.03;85.56;97491.84;5088799;28;20203;-75
2020/12/11 02:15:21;;;;;;;11.30;9.83;;;;;;;2.04;85.79;97485.69;5080275;28;20194;-75
2020/12/11 02:17:49;;;;;;;10.23;9.33;;;;;;;2.15;85.91;97478.09;5077692;28;20181;-75
2020/12/11 02:20:17;;;;;;;10.07;9.07;;;;;;;2.17;85.80;97477.09;5072117;28;20213;-75
2020/12/11 02:22:45;;;;;;;10.97;9.87;;;;;;;1.94;86.48;97471.53;5086277;28;20276;-75
2020/12/11 02:25:12;;;;;;;11.50;10.40;;;;;;;2.01;86.26;97465.03;5092520;28;20747;-75
2020/12/11 02:27:39;;;;;;;12.33;11.13;;;;;;;1.93;86.50;97464.66;5092624;28;20192;-75
2020/12/11 02:30:07;;;;;;;10.63;9.53;;;;;;;1.89;86.76;97460.53;5087028;28;20254;-75
2020/12/11 02:32:34;;;;;;;12.27;9.97;;;;;;;1.78;86.97;97458.53;5081374;28;20196;-75
2020/12/11 02:35:03;;;;;;;11.13;10.03;;;;;;;1.80;86.51;97448.03;5083343;28;20189;-75
2020/12/11 02:37:30;;;;;;;12.27;10.80;;;;;;;1.75;86.99;97448.28;5083428;28;20421;-75
2020/12/11 02:39:58;;;;;;;11.03;9.93;;;;;;;1.78;87.48;97437.69;5075451;28;20211;-75
2020/12/11 02:42:25;;;;;;;11.40;10.20;;;;;;;1.68;87.37;97426.97;5073233;28;20205;-75
2020/12/11 02:44:52;;;;;;;11.43;10.33;;;;;;;1.63;87.86;97421.19;5084971;28;20189;-74
2020/12/11 02:47:19;;;;;;;11.83;10.57;;;;;;;1.64;88.17;97415.06;5087071;28;20185;-75
2020/12/11 02:49:46;;;;;;;12.93;11.63;;;;;;;1.55;88.52;97407.75;5104852;28;20223;-75
2020/12/11 02:52:13;;;;;;;13.23;11.90;;;;;;;1.57;88.29;97408.50;5091364;28;20223;-74
2020/12/11 02:54:40;;;;;;;12.20;10.93;;;;;;;1.53;88.67;97398.38;5084010;28;20609;-74
2020/12/11 02:57:08;;;;;;;11.33;10.07;;;;;;;1.59;89.07;97398.88;5080503;28;20304;-74
2020/12/11 02:59:35;;;;;;;11.97;10.77;;;;;;;1.63;88.85;97381.28;5090374;28;20282;-75
2020/12/11 03:02:02;;;;;;;11.70;10.50;;;;;;;1.61;89.13;97383.16;5090317;28;20242;-75
2020/12/11 03:04:29;;;;;;;11.40;10.30;;;;;;;1.58;89.03;97376.34;5081381;28;20249;-76
2020/12/11 03:06:57;;;;;;;11.60;10.40;;;;;;;1.62;88.83;97375.25;5089022;28;20218;-75
2020/12/11 03:09:24;;;;;;;13.13;11.73;;;;;;;1.46;88.64;97377.03;5089369;28;20203;-75
2020/12/11 03:11:51;;;;;;;10.90;9.80;;;;;;;1.58;88.78;97378.94;5086487;28;20288;-75
2020/12/11 03:14:18;;;;;;;11.17;10.00;;;;;;;1.59;88.67;97391.06;5084603;28;20205;-75
2020/12/11 03:16:45;;;;;;;11.80;10.50;;;;;;;1.65;88.48;97388.09;5074020;28;20203;-75
2020/12/11 03:19:14;;;;;;;11.87;10.67;;;;;;;1.66;88.35;97397.56;5091638;28;20201;-75
2020/12/11 03:21:41;;;;;;;11.93;10.73;;;;;;;1.70;88.08;97383.47;5091045;28;20536;-75
2020/12/11 03:24:08;;;;;;;12.63;10.47;;;;;;;1.75;88.18;97377.97;5091533;28;20215;-75
2020/12/11 03:26:35;;;;;;;13.50;12.10;;;;;;;1.65;88.65;97377.69;5091572;28;20191;-75
2020/12/11 03:29:02;;;;;;;13.97;12.57;;;;;;;1.51;89.25;97377.66;5091811;28;20197;-75
2020/12/11 03:31:30;;;;;;;15.03;13.33;;;;;;;1.44;90.28;97365.88;5091485;28;20699;-75
2020/12/11 03:33:57;;;;;;;14.90;12.83;;;;;;;1.35;90.98;97362.97;5090701;28;20284;-71
2020/12/11 03:36:24;;;;;;;14.00;12.40;;;;;;;1.40;90.74;97359.19;5091654;28;20191;-75
2020/12/11 03:38:51;;;;;;;15.70;13.27;;;;;;;1.42;90.68;97362.53;5091667;28;20206;-75
2020/12/11 03:41:18;;;;;;;15.90;14.20;;;;;;;1.41;90.77;97360.84;5090977;28;20276;-75
2020/12/11 03:43:45;;;;;;;14.30;12.80;;;;;;;1.41;90.71;97354.81;5090914;28;20530;-75
2020/12/11 03:46:19;;;;;;;16.13;13.67;;;;;;;1.27;91.01;97352.16;5082162;28;20236;-75
2020/12/11 03:48:49;;;;;;;14.57;12.50;;;;;;;1.35;90.91;97340.38;5079224;28;20282;-75
2020/12/11 03:51:17;;;;;;;14.50;12.47;;;;;;;1.41;90.21;97337.44;5090995;28;20739;-74
2020/12/11 03:53:44;;;;;;;15.00;13.37;;;;;;;1.39;90.14;97330.63;5091379;28;20211;-81
2020/12/11 03:56:13;;;;;;;13.50;12.10;;;;;;;1.44;89.89;97324.25;5090754;28;20653;-74
2020/12/11 03:58:40;;;;;;;15.27;13.57;;;;;;;1.41;90.66;97316.63;5088712;28;20204;-74
2020/12/11 04:01:10;;;;;;;13.97;12.47;;;;;;;1.50;90.06;97303.06;5087954;28;20269;-75
2020/12/11 04:03:37;;;;;;;14.97;12.63;;;;;;;1.48;89.75;97302.34;5091039;28;20394;-74
2020/12/11 04:06:09;;;;;;;16.47;13.93;;;;;;;1.42;89.98;97301.84;5089686;28;20210;-74
2020/12/11 04:08:37;;;;;;;13.90;12.07;;;;;;;1.44;89.98;97308.63;5062712;28;20233;-75
2020/12/11 04:11:05;;;;;;;13.17;11.57;;;;;;;1.46;90.24;97301.56;5082124;28;20329;-74
2020/12/11 04:13:33;;;;;;;13.87;12.30;;;;;;;1.44;90.28;97287.81;5078543;28;20203;-76
2020/12/11 04:16:00;;;;;;;11.17;9.97;;;;;;;1.47;90.17;97282.44;5074555;28;20197;-75
2020/12/11 04:18:27;;;;;;;16.53;14.33;;;;;;;1.37;90.19;97276.09;5075864;28;20283;-78
2020/12/11 04:20:56;;;;;;;14.43;11.67;;;;;;;1.46;90.66;97279.94;5090165;28;20200;-78
2020/12/11 04:23:24;;;;;;;13.30;10.97;;;;;;;1.47;90.63;97265.97;5083842;28;20262;-77
2020/12/11 04:25:52;;;;;;;13.40;11.67;;;;;;;1.40;91.18;97257.69;5080310;28;20253;-78
2020/12/11 04:28:19;;;;;;;12.07;9.90;;;;;;;1.41;90.69;97261.13;5055381;28;20190;-77
2020/12/11 04:30:48;;;;;;;16.87;13.67;;;;;;;1.36;91.14;97268.38;5090624;28;20200;-75
2020/12/11 04:33:16;;;;;;;14.27;12.57;;;;;;;1.39;91.20;97266.44;5085485;28;20658;-74
2020/12/11 04:35:43;;;;;;;16.50;14.40;;;;;;;1.19;92.26;97266.72;5082589;28;20184;-76
2020/12/11 04:38:09;;;;;;;15.17;13.57;;;;;;;1.25;92.06;97266.38;5090763;28;20713;-75
2020/12/11 04:40:37;;;;;;;16.43;14.07;;;;;;;1.15;92.55;97265.25;5089877;28;20188;-77
2020/12/11 04:43:05;;;;;;;16.87;15.03;;;;;;;1.07;92.99;97267.44;5089870;28;20230;-76
2020/12/11 04:45:32;;;;;;;20.53;15.97;;;;;;;1.08;93.08;97269.13;5086965;28;20233;-75
2020/12/11 04:48:01;;;;;;;16.03;14.10;;;;;;;1.16;92.80;97270.34;5082333;28;20351;-76
2020/12/11 04:50:28;;;;;;;18.67;14.93;;;;;;;1.09;93.06;97276.00;5078575;28;20210;-75
2020/12/11 04:52:57;;;;;;;19.37;16.03;;;;;;;1.07;92.94;97272.63;5086733;28;20276;-75
2020/12/11 04:55:23;;;;;;;18.33;14.87;;;;;;;1.09;92.92;97271.66;5085138;28;20192;-76
2020/12/11 04:57:52;;;;;;;16.80;14.70;;;;;;;1.12;93.53;97261.03;5084852;28;20213;-77
2020/12/11 05:00:21;;;;;;;17.37;15.43;;;;;;;1.05;93.47;97264.09;5086322;28;20202;-75
2020/12/11 05:02:49;;;;;;;18.57;15.17;;;;;;;1.04;93.12;97259.78;5088045;28;20200;-76
2020/12/11 05:05:18;;;;;;;17.23;14.37;;;;;;;1.03;93.20;97255.53;5081980;28;20576;-75
2020/12/11 05:07:45;;;;;;;16.73;14.53;;;;;;;1.02;93.12;97243.44;5080904;28;20206;-75
2020/12/11 05:10:13;;;;;;;16.47;13.20;;;;;;;1.03;93.08;97235.56;5083682;28;20621;-75
2020/12/11 05:12:44;;;;;;;18.03;14.77;;;;;;;1.01;92.95;97241.78;5101095;28;20261;-75
2020/12/11 05:15:13;;;;;;;16.83;13.37;;;;;;;0.91;92.83;97241.47;5090575;28;20204;-75
2020/12/11 05:17:42;;;;;;;16.13;13.53;;;;;;;0.92;93.09;97237.09;5076558;28;20352;-75
2020/12/11 05:20:11;;;;;;;18.87;14.33;;;;;;;0.90;93.04;97238.97;5083755;28;20280;-75
2020/12/11 05:22:40;;;;;;;15.03;12.17;;;;;;;0.93;93.11;97234.41;5096554;28;20266;-75
2020/12/11 05:25:13;;;;;;;15.53;12.13;;;;;;;0.91;92.94;97233.66;5089211;28;20557;-75
2020/12/11 05:27:41;;;;;;;17.27;14.30;;;;;;;0.82;93.08;97243.72;5080972;28;20202;-75
2020/12/11 05:30:23;;;;;;;14.67;12.23;;;;;;;0.84;93.12;97234.91;5090528;28;20542;-76
2020/12/11 05:32:52;;;;;;;18.73;15.10;;;;;;;0.80;93.25;97250.78;5084887;28;20219;-76
2020/12/11 05:35:22;;;;;;;15.33;13.30;;;;;;;0.82;93.15;97252.38;5075849;28;20208;-75
2020/12/11 05:37:51;;;;;;;18.37;14.50;;;;;;;0.66;93.77;97251.56;5083178;28;20210;-75
2020/12/11 05:40:20;;;;;;;19.60;16.27;;;;;;;0.57;93.64;97252.91;5086840;28;20204;-75
2020/12/11 05:43:23;;;;;;;17.50;13.90;;;;;;;0.62;93.87;97244.84;5077615;28;20202;-75
2020/12/11 05:45:53;;;;;;;19.13;14.20;;;;;;;0.64;93.79;97252.56;5081666;28;20333;-75
2020/12/11 05:48:23;;;;;;;16.80;13.93;;;;;;;0.68;93.62;97254.06;5089086;28;20189;-74
2020/12/11 05:50:50;;;;;;;16.47;13.17;;;;;;;0.69;93.45;97246.19;5079804;28;20280;-76
2020/12/11 05:53:17;;;;;;;16.90;13.40;;;;;;;0.69;93.27;97240.16;5092028;28;20249;-75
2020/12/11 05:55:44;;;;;;;19.20;15.80;;;;;;;0.48;94.45;97236.97;5092816;28;20218;-75
2020/12/11 05:58:11;;;;;;;19.63;16.20;;;;;;;0.44;94.90;97231.13;5093118;28;20280;-75
2020/12/11 06:00:40;;;;;;;20.03;16.27;;;;;;;0.46;94.78;97231.03;5088994;28;20198;-75
2020/12/11 06:03:08;;;;;;;19.87;15.50;;;;;;;0.42;95.18;97222.56;5091587;28;20727;-75
2020/12/11 06:05:38;;;;;;;20.40;15.87;;;;;;;0.47;94.83;97219.72;5090463;28;20209;-75
2020/12/11 06:08:09;;;;;;;21.07;15.77;;;;;;;0.43;95.29;97219.06;5074105;28;20204;-75
2020/12/11 06:10:39;;;;;;;17.40;13.73;;;;;;;0.46;94.93;97224.09;5093521;28;20644;-76
2020/12/11 06:13:06;;;;;;;19.40;15.30;;;;;;;0.46;94.60;97228.44;5092506;28;20240;-75
2020/12/11 06:15:38;;;;;;;16.40;13.57;;;;;;;0.47;94.54;97230.13;5091024;28;20205;-74
2020/12/11 06:18:10;;;;;;;22.13;17.10;;;;;;;0.33;94.56;97233.47;5089766;28;20211;-76
2020/12/11 06:20:38;;;;;;;17.37;13.47;;;;;;;0.38;94.54;97231.47;5090660;28;20251;-76
2020/12/11 06:23:24;;;;;;;21.97;16.10;;;;;;;0.36;94.19;97233.31;5085592;28;20271;-77
2020/12/11 06:25:54;;;;;;;20.20;15.77;;;;;;;0.42;94.48;97216.56;5082999;28;20271;-75
2020/12/11 06:28:41;;;;;;;14.93;11.67;;;;;;;0.54;94.74;97211.50;5103630;28;20558;-77
2020/12/11 06:31:10;;;;;;;17.03;13.43;;;;;;;0.57;94.23;97206.13;5073776;28;20626;-79
2020/12/11 06:33:39;;;;;;;19.33;14.37;;;;;;;0.55;94.47;97197.59;5057738;28;20284;-76
2020/12/11 06:36:07;;;;;;;15.63;12.60;;;;;;;0.52;94.74;97192.56;5092574;28;20214;-76
2020/12/11 06:38:46;;;;;;;19.67;15.63;;;;;;;0.48;95.65;97185.84;5075089;28;20213;-76
2020/12/11 06:41:14;;;;;;;19.33;15.37;;;;;;;0.55;95.25;97181.16;5092721;28;20224;-82
2020/12/11 06:43:43;;;;;;;19.00;15.13;;;;;;;0.51;94.78;97179.63;5090545;28;20606;-77
2020/12/11 06:46:16;;;;;;;21.07;15.83;;;;;;;0.33;94.97;97176.31;5091699;28;20226;-81
2020/12/11 06:49:10;;;;;;;18.37;14.00;;;;;;;0.30;95.59;97178.25;5089543;28;20196;-81
2020/12/11 06:52:11;;;;;;;21.60;16.00;;;;;;;0.18;95.26;97160.72;5059333;28;20228;-79
2020/12/11 06:54:52;;;;;;;18.47;14.70;;;;;;;0.29;95.25;97154.03;5074021;28;20216;-79
2020/12/11 06:57:36;;;;;;;22.93;15.10;;;;;;;0.21;95.31;97156.22;5087215;28;20696;-79
2020/12/11 07:00:22;;;;;;;19.97;14.87;;;;;;;0.24;95.34;97158.66;5089566;28;20513;-79
2020/12/11 07:03:13;;;;;;;20.30;13.97;;;;;;;0.31;94.42;97162.56;5090146;28;20217;-78
2020/12/11 07:05:41;;;;;;;20.93;16.37;;;;;;;0.21;94.74;97156.22;5074649;28;20189;-79
2020/12/11 07:08:13;;;;;;;20.80;15.60;;;;;;;0.27;94.63;97158.47;5089655;28;20213;-79
2020/12/11 07:10:41;;;;;;;24.20;16.87;;;;;;;0.24;95.14;97156.06;5091163;28;20232;-79
2020/12/11 07:13:08;;;;;;;23.20;16.20;;;;;;;0.34;94.30;97162.41;5091489;28;20313;-79
2020/12/11 07:15:36;;;;;;;21.67;16.97;;;;;;;0.39;94.20;97155.19;5091360;28;20205;-80
2020/12/11 07:18:04;;;;;;;21.57;15.73;;;;;;;0.48;93.74;97149.47;5091925;28;20200;-79
2020/12/11 07:20:31;;;;;;;20.53;16.13;;;;;;;0.43;94.64;97140.25;5086783;28;20223;-80
2020/12/11 07:23:00;;;;;;;19.17;15.43;;;;;;;0.43;94.09;97135.91;5090806;28;20215;-79
2020/12/11 07:25:28;;;;;;;23.30;16.33;;;;;;;0.40;94.26;97135.22;5090992;28;20310;-79
2020/12/11 07:27:59;;;;;;;19.80;15.40;;;;;;;0.39;93.95;97133.59;5091043;28;20278;-79
2020/12/11 07:30:26;;;;;;;19.47;15.33;;;;;;;0.51;93.67;97128.50;5090239;28;20585;-80
2020/12/11 07:32:55;;;;;;;17.70;14.43;;;;;;;0.48;93.65;97133.03;5086518;28;20298;-80
2020/12/11 07:35:23;;;;;;;19.97;15.20;;;;;;;0.40;92.25;97119.66;5071221;28;20254;-81
2020/12/11 07:37:52;;;;;;;19.60;15.07;;;;;;;0.41;92.01;97116.97;5089776;28;20654;-79
2020/12/11 07:40:21;;;;;;;19.90;15.60;;;;;;;0.46;91.85;97109.75;5082412;28;20233;-78
2020/12/11 07:42:49;;;;;;;19.27;14.97;;;;;;;0.49;90.93;97106.97;5088143;28;20205;-79
2020/12/11 07:45:27;;;;;;;19.27;15.13;;;;;;;0.43;91.80;97103.88;5089704;28;20232;-81
2020/12/11 07:47:54;;;;;;;18.13;14.20;;;;;;;0.62;91.60;97098.50;5090641;28;20275;-79
2020/12/11 07:50:23;;;;;;;18.10;14.30;;;;;;;0.71;90.56;97097.94;5089053;28;20681;-73
2020/12/11 07:52:52;;;;;;;18.37;14.43;;;;;;;0.69;91.08;97105.00;5088640;28;20213;-74
2020/12/11 07:55:21;;;;;;;17.57;12.97;;;;;;;0.67;90.54;97106.84;5081482;28;20209;-75
2020/12/11 07:57:55;;;;;;;20.47;16.03;;;;;;;0.63;90.97;97105.34;5076724;28;20243;-74
2020/12/11 08:00:23;;;;;;;18.87;14.27;;;;;;;0.66;91.70;97102.56;5081021;28;20200;-74
2020/12/11 08:02:54;;;;;;;19.37;14.27;;;;;;;0.79;90.61;97116.53;5087827;28;20200;-75
2020/12/11 08:05:23;;;;;;;18.50;14.10;;;;;;;0.86;89.89;97112.66;5084199;28;20194;-75
2020/12/11 08:07:53;;;;;;;17.30;13.93;;;;;;;0.89;88.89;97104.69;5089930;28;20203;-76
2020/12/11 08:10:22;;;;;;;18.77;13.33;;;;;;;0.94;89.34;97106.06;5084202;28;20198;-75
2020/12/11 08:12:50;;;;;;;19.97;14.17;;;;;;;1.01;89.66;97094.38;5072289;28;20235;-75
2020/12/11 08:15:31;;;;;;;19.33;14.50;;;;;;;1.10;88.82;97095.59;5087629;28;20197;-75
2020/12/11 08:18:24;;;;;;;15.77;12.10;;;;;;;1.18;89.87;97090.75;5090153;28;20250;-75
2020/12/11 08:20:57;;;;;;;18.63;14.80;;;;;;;1.09;89.28;97088.72;5090473;28;20795;-76
2020/12/11 08:23:37;;;;;;;19.37;15.07;;;;;;;1.23;89.76;97090.50;5090009;28;20207;-75
2020/12/11 08:26:18;;;;;;;19.70;14.77;;;;;;;1.14;89.06;97091.88;5072212;28;20205;-75
2020/12/11 08:28:47;;;;;;;16.87;13.17;;;;;;;1.34;88.79;97094.13;5075851;28;20494;-75
2020/12/11 08:31:20;;;;;;;18.63;15.47;;;;;;;1.30;88.51;97095.22;5070172;28;20210;-75
2020/12/11 08:34:04;;;;;;;21.03;15.80;;;;;;;1.86;86.71;97096.09;5079508;28;20198;-76
2020/12/11 08:36:33;;;;;;;19.83;15.50;;;;;;;2.31;82.99;97094.03;5068117;28;20304;-76
2020/12/11 08:39:19;;;;;;;20.27;15.47;;;;;;;2.17;82.44;97101.06;5085416;28;20205;-75
2020/12/11 08:42:15;;;;;;;17.03;13.27;;;;;;;3.02;81.53;97093.66;5056064;28;20197;-75
2020/12/11 08:45:08;;;;;;;18.43;13.83;;;;;;;3.14;79.75;97089.41;5090527;28;20225;-75
2020/12/11 08:50:27;;;;;;;18.67;13.87;;;;;;;2.48;82.11;97094.69;5087801;28;20191;-75
2020/12/11 08:52:54;;;;;;;18.17;14.43;;;;;;;1.98;81.88;97084.94;5076828;28;20216;-75
2020/12/11 08:55:21;;;;;;;18.93;14.30;;;;;;;1.93;82.91;97085.22;5091125;28;20196;-74
2020/12/11 08:57:49;;;;;;;17.00;13.93;;;;;;;2.13;83.96;97089.16;5090418;28;20322;-75
2020/12/11 09:00:18;;;;;;;18.00;14.47;;;;;;;2.21;83.57;97081.69;5089620;28;20216;-75
2020/12/11 09:02:45;;;;;;;19.90;15.17;;;;;;;2.13;83.35;97074.34;5087223;28;20249;-75
2020/12/11 09:05:13;;;;;;;15.70;12.90;;;;;;;2.34;83.83;97072.13;5089301;28;20196;-75
2020/12/11 09:07:40;;;;;;;18.20;14.97;;;;;;;2.36;82.43;97072.88;5089996;28;20261;-75
2020/12/11 09:10:07;;;;;;;22.47;14.97;;;;;;;2.27;82.70;97058.66;5089909;28;20207;-75
2020/12/11 09:12:37;;;;;;;18.57;14.57;;;;;;;2.32;82.19;97066.19;5089185;28;20208;-74
2020/12/11 09:15:09;;;;;;;18.07;13.27;;;;;;;2.46;82.70;97066.13;5089202;28;20207;-74
2020/12/11 09:17:36;;;;;;;18.33;14.60;;;;;;;2.49;82.22;97059.88;5090898;28;20200;-75
2020/12/11 09:20:04;;;;;;;18.07;14.43;;;;;;;2.21;82.87;97066.91;5093089;28;20276;-74
2020/12/11 09:22:32;;;;;;;18.77;14.37;;;;;;;2.19;82.18;97068.75;5090524;28;20919;-75
2020/12/11 09:24:59;;;;;;;18.90;14.57;;;;;;;2.25;82.67;97067.53;5094458;28;20204;-75
2020/12/11 09:27:27;;;;;;;21.33;15.13;;;;;;;2.16;82.40;97068.94;5092054;28;20197;-75
2020/12/11 09:29:58;;;;;;;19.10;14.63;;;;;;;2.15;82.40;97071.66;5086855;28;20727;-74
2020/12/11 09:32:34;;;;;;;17.37;14.70;;;;;;;2.21;83.38;97066.91;5080125;28;20232;-74
2020/12/11 09:35:01;;;;;;;21.83;13.87;;;;;;;2.39;83.04;97075.28;5083630;28;20213;-75
2020/12/11 09:37:28;;;;;;;20.20;15.57;;;;;;;2.52;82.41;97078.78;5074250;28;20255;-75
2020/12/11 09:39:55;;;;;;;25.20;17.63;;;;;;;2.34;82.08;97075.59;5088193;28;20193;-75
2020/12/11 09:45:20;;;;;;;21.80;15.17;;;;;;;2.49;83.48;97071.16;5091719;28;20211;-76
2020/12/11 09:50:48;;;;;;;24.57;17.73;;;;;;;2.58;82.87;97073.16;5074798;28;20197;-76
2020/12/11 09:53:24;;;;;;;22.90;16.33;;;;;;;2.73;82.84;97068.69;5094151;28;20250;-75
2020/12/11 09:55:56;;;;;;;20.60;15.43;;;;;;;2.48;82.65;97063.41;5076190;28;20668;-75
2020/12/11 09:58:23;;;;;;;21.90;16.60;;;;;;;2.44;83.51;97059.34;5094122;28;20200;-76
2020/12/11 10:00:52;;;;;;;20.27;15.60;;;;;;;2.38;84.14;97050.16;5094767;28;20193;-76
2020/12/11 10:03:22;;;;;;;19.07;15.63;;;;;;;2.51;83.98;97047.56;5096022;28;20212;-75
2020/12/11 10:05:49;;;;;;;21.23;16.50;;;;;;;2.57;84.23;97037.59;5069088;28;20239;-76
2020/12/11 10:08:16;;;;;;;19.67;16.17;;;;;;;2.68;83.09;97042.09;5075084;28;20280;-75
2020/12/11 10:10:43;;;;;;;20.60;15.63;;;;;;;2.72;83.58;97036.56;5093037;28;20192;-75
2020/12/11 10:13:10;;;;;;;24.40;16.70;;;;;;;2.60;83.66;97037.38;5094580;28;20215;-75
2020/12/11 10:15:37;;;;;;;19.47;15.33;;;;;;;2.70;84.22;97022.78;5093101;28;20273;-74
2020/12/11 10:18:05;;;;;;;22.93;16.47;;;;;;;2.51;84.21;97022.34;5093589;28;20224;-74
2020/12/11 10:20:35;;;;;;;23.27;15.83;;;;;;;2.78;83.45;97020.50;5092370;28;20654;-75
2020/12/11 10:23:02;;;;;;;21.40;16.07;;;;;;;2.73;83.37;97012.16;5093536;28;20196;-74
2020/12/11 10:25:29;;;;;;;21.53;16.27;;;;;;;2.67;83.53;97001.28;5093551;28;20199;-75
2020/12/11 10:27:56;;;;;;;19.67;15.37;;;;;;;2.69;84.34;97000.28;5093240;28;20200;-75
2020/12/11 10:30:23;;;;;;;21.07;15.50;;;;;;;2.79;84.28;97006.53;5092112;28;20196;-75
2020/12/11 10:32:50;;;;;;;20.10;14.87;;;;;;;2.82;83.91;97011.53;5092453;28;20230;-75
2020/12/11 10:35:17;;;;;;;22.10;15.30;;;;;;;2.99;84.25;97004.34;5092017;28;20197;-75
2020/12/11 10:37:45;;;;;;;18.73;13.73;;;;;;;3.10;84.10;96999.22;5081718;28;20201;-74
2020/12/11 10:40:12;;;;;;;19.23;13.93;;;;;;;3.16;84.25;97002.25;5084596;28;20200;-75
2020/12/11 10:42:39;;;;;;;20.03;15.20;;;;;;;3.02;83.35;96999.75;5093731;28;20258;-77
2020/12/11 10:45:06;;;;;;;18.73;15.47;;;;;;;2.89;83.85;96997.13;5092031;28;20224;-83
2020/12/11 10:47:33;;;;;;;19.30;14.20;;;;;;;2.70;84.39;96991.50;5084946;28;20201;-83
2020/12/11 10:50:00;;;;;;;20.10;14.73;;;;;;;2.78;84.63;96989.19;5086159;28;20724;-85
2020/12/11 10:52:27;;;;;;;18.27;14.57;;;;;;;2.87;84.80;96998.16;5093006;28;20307;-84
2020/12/11 10:54:56;;;;;;;18.37;14.30;;;;;;;3.00;83.72;96992.97;5093943;28;20207;-83
2020/12/11 10:57:24;;;;;;;18.10;15.20;;;;;;;3.10;83.82;96978.34;5094175;28;20207;-84
2020/12/11 10:59:51;;;;;;;18.20;14.30;;;;;;;3.09;82.53;96976.69;5093751;28;20234;-82
2020/12/11 11:02:18;;;;;;;28.17;16.10;;;;;;;3.08;83.26;96968.03;5088893;28;20678;-83
2020/12/11 11:04:45;;;;;;;15.10;12.83;;;;;;;3.08;84.02;96954.13;5053747;28;20198;-83
2020/12/11 11:07:15;;;;;;;15.47;13.37;;;;;;;3.24;82.96;96952.13;5064803;28;20207;-83
2020/12/11 11:09:46;;;;;;;16.90;13.57;;;;;;;3.28;83.08;96956.19;5084586;28;20216;-76
2020/12/11 11:12:21;;;;;;;17.57;13.70;;;;;;;3.39;83.63;96948.44;5083823;28;20223;-81
2020/12/11 11:15:20;;;;;;;16.10;13.10;;;;;;;3.13;83.00;96942.44;5090015;28;20204;-80
2020/12/11 11:18:17;;;;;;;16.90;12.50;;;;;;;3.24;83.60;96933.84;5057080;28;20212;-78
2020/12/11 11:26:23;;;;;;;14.30;11.17;;;;;;;3.37;80.68;96918.97;5093084;28;20276;-79
2020/12/11 11:28:50;;;;;;;11.50;10.30;;;;;;;3.74;81.01;96910.16;5085842;28;20203;-80
2020/12/11 11:31:18;;;;;;;16.53;11.63;;;;;;;3.66;80.08;96899.44;5081063;28;20276;-80
2020/12/11 11:33:45;;;;;;;16.33;11.50;;;;;;;3.84;79.43;96898.09;5063316;28;20626;-78
2020/12/11 11:36:12;;;;;;;14.83;11.17;;;;;;;3.83;78.92;96896.44;5072638;27;20264;-78
2020/12/11 11:38:39;;;;;;;15.67;11.87;;;;;;;3.79;79.35;96894.16;5091396;28;20696;-79
2020/12/11 11:41:06;;;;;;;16.97;12.97;;;;;;;3.90;79.90;96891.59;5083480;28;20195;-78
2020/12/11 11:43:54;;;;;;;14.30;12.10;;;;;;;3.87;80.91;96881.38;5083510;28;20214;-78
2020/12/11 11:46:22;;;;;;;14.93;12.70;;;;;;;3.72;80.08;96872.03;5089152;28;20610;-79
2020/12/11 11:48:49;;;;;;;15.87;11.13;;;;;;;3.98;79.80;96866.56;5090068;28;20584;-78
2020/12/11 11:51:20;;;;;;;22.77;12.40;;;;;;;3.99;79.40;96870.81;5089610;28;20619;-79
2020/12/11 11:53:46;;;;;;;15.23;11.60;;;;;;;4.28;78.13;96867.81;5075069;28;20637;-77